createdAt,value
2022-10-15T00:01:38.430Z,99857.84
2022-10-15T00:04:08.209Z,99859.97
2022-10-15T00:06:37.751Z,99866.41
2022-10-15T00:09:08.744Z,99852.31
2022-10-15T00:11:40.166Z,99850.63
2022-10-15T00:14:10.015Z,99839.59
2022-10-15T00:16:40.478Z,99838.97
2022-10-15T00:19:10.649Z,99841.94
2022-10-15T00:21:41.226Z,99837.56
2022-10-15T00:24:20.410Z,99841.91
2022-10-15T00:26:50.082Z,99836.72
2022-10-15T00:29:19.643Z,99831.75
2022-10-15T00:31:49.422Z,99835.13
2022-10-15T00:34:19.040Z,99832.81
2022-10-15T00:36:50.976Z,99837.22
2022-10-15T00:39:21.961Z,99839.88
2022-10-15T00:41:51.565Z,99830.28
2022-10-15T00:44:39.837Z,99841.03
2022-10-15T00:47:14.319Z,99837.06
2022-10-15T00:49:45.788Z,99839.22
2022-10-15T00:52:17.735Z,99839.22
2022-10-15T00:54:50.651Z,99836.38
2022-10-15T00:57:20.643Z,99835.13
2022-10-15T00:59:52.729Z,99835.97
2022-10-15T01:02:23.108Z,99835.66
2022-10-15T01:04:53.619Z,99833.75
2022-10-15T01:07:23.157Z,99833.63
2022-10-15T01:09:54.335Z,99827.59
2022-10-15T01:12:29.843Z,99829.50
2022-10-15T01:15:02.251Z,99834.19
2022-10-15T01:17:36.195Z,99832.66
2022-10-15T01:20:17.112Z,99836.09
2022-10-15T01:22:51.865Z,99835.19
2022-10-15T01:25:30.147Z,99826.31
2022-10-15T01:28:08.055Z,99832.41
2022-10-15T01:30:41.022Z,99828.28
2022-10-15T01:33:23.122Z,99824.22
2022-10-15T01:35:53.500Z,99825.81
2022-10-15T01:38:31.418Z,99830.72
2022-10-15T01:41:04.955Z,99838.47
2022-10-15T01:43:36.967Z,99834.25
2022-10-15T01:46:09.970Z,99837.25
2022-10-15T01:48:39.921Z,99838.69
2022-10-15T01:51:11.820Z,99839.63
2022-10-15T01:53:41.695Z,99837.75
2022-10-15T01:56:16.880Z,99847.72
2022-10-15T01:58:48.286Z,99842.66
2022-10-15T02:01:19.356Z,99847.47
2022-10-15T02:03:49.877Z,99851.25
2022-10-15T02:06:22.785Z,99843.34
2022-10-15T02:09:10.317Z,99844.34
2022-10-15T02:11:49.151Z,99852.50
2022-10-15T02:14:28.161Z,99847.94
2022-10-15T02:17:04.177Z,99849.84
2022-10-15T02:19:39.088Z,99857.31
2022-10-15T02:22:10.554Z,99849.72
2022-10-15T02:24:42.874Z,99842.66
2022-10-15T02:27:14.327Z,99855.22
2022-10-15T02:29:45.252Z,99847.06
2022-10-15T02:32:16.724Z,99845.94
2022-10-15T02:34:47.480Z,99848.03
2022-10-15T02:37:18.577Z,99847.66
2022-10-15T02:39:48.428Z,99850.94
2022-10-15T02:42:18.878Z,99852.06
2022-10-15T02:44:48.665Z,99847.09
2022-10-15T02:47:19.709Z,99852.91
2022-10-15T02:49:49.318Z,99845.44
2022-10-15T02:52:19.460Z,99848.13
2022-10-15T02:54:48.986Z,99842.19
2022-10-15T02:57:18.504Z,99839.69
2022-10-15T02:59:48.106Z,99838.69
2022-10-15T03:02:19.419Z,99853.06
2022-10-15T03:04:49.090Z,99845.44
2022-10-15T03:07:19.014Z,99851.78
2022-10-15T03:09:48.639Z,99845.47
2022-10-15T03:12:18.166Z,99852.97
2022-10-15T03:14:48.345Z,99856.63
2022-10-15T03:17:19.387Z,99855.22
2022-10-15T03:19:49.203Z,99859.16
2022-10-15T03:22:18.830Z,99861.69
2022-10-15T03:24:48.386Z,99862.22
2022-10-15T03:27:17.964Z,99865.81
2022-10-15T03:29:47.629Z,99857.63
2022-10-15T03:32:17.250Z,99865.09
2022-10-15T03:34:48.291Z,99858.03
2022-10-15T03:37:17.881Z,99866.94
2022-10-15T03:39:47.452Z,99863.25
2022-10-15T03:42:17.127Z,99864.53
2022-10-15T03:44:46.852Z,99863.72
2022-10-15T03:47:16.415Z,99869.50
2022-10-15T03:49:46.112Z,99863.41
2022-10-15T03:52:17.355Z,99863.41
2022-10-15T03:54:46.994Z,99859.38
2022-10-15T03:57:16.499Z,99864.28
2022-10-15T03:59:46.205Z,99862.75
2022-10-15T04:02:15.867Z,99860.34
2022-10-15T04:04:45.405Z,99854.00
2022-10-15T04:07:14.970Z,99855.69
2022-10-15T04:09:46.112Z,99857.81
2022-10-15T04:12:15.673Z,99860.34
2022-10-15T04:14:45.767Z,99860.34
2022-10-15T04:17:15.676Z,99858.66
2022-10-15T04:19:47.631Z,99862.44
2022-10-15T04:22:17.320Z,99858.53
2022-10-15T04:24:48.692Z,99855.56
2022-10-15T04:27:18.321Z,99856.69
2022-10-15T04:29:48.321Z,99859.66
2022-10-15T04:32:18.145Z,99861.63
2022-10-15T04:34:48.313Z,99849.94
2022-10-15T04:37:18.786Z,99853.44
2022-10-15T04:39:49.747Z,99860.66
2022-10-15T04:42:19.435Z,99854.91
2022-10-15T04:44:49.142Z,99856.41
2022-10-15T04:47:18.696Z,99851.88
2022-10-15T04:49:48.179Z,99858.81
2022-10-15T04:52:17.789Z,99865.72
2022-10-15T04:54:48.900Z,99856.41
2022-10-15T04:57:18.499Z,99862.34
2022-10-15T04:59:48.164Z,99869.25
2022-10-15T05:02:17.864Z,99864.59
2022-10-15T05:04:47.644Z,99871.22
2022-10-15T05:07:17.219Z,99868.41
2022-10-15T05:09:47.411Z,99867.44
2022-10-15T05:12:19.155Z,99875.88
2022-10-15T05:14:49.294Z,99882.50
2022-10-15T05:17:19.223Z,99877.84
2022-10-15T05:19:48.981Z,99872.19
2022-10-15T05:22:18.717Z,99877.00
2022-10-15T05:24:48.294Z,99876.72
2022-10-15T05:27:19.635Z,99886.47
2022-10-15T05:29:49.270Z,99876.03
2022-10-15T05:34:54.771Z,99870.25
2022-10-15T05:37:26.136Z,99878.38
2022-10-15T05:39:55.845Z,99882.22
2022-10-15T05:42:26.991Z,99889.28
2022-10-15T05:44:57.432Z,99890.94
2022-10-15T05:47:27.157Z,99889.69
2022-10-15T05:49:57.276Z,99896.06
2022-10-15T05:52:27.260Z,99899.13
2022-10-15T05:54:57.163Z,99908.03
2022-10-15T05:57:28.210Z,99902.69
2022-10-15T05:59:57.898Z,99909.31
2022-10-15T06:02:28.079Z,99919.00
2022-10-15T06:04:57.970Z,99917.31
2022-10-15T06:07:27.819Z,99910.13
2022-10-15T06:09:57.793Z,99915.19
2022-10-15T06:12:28.843Z,99919.00
2022-10-15T06:14:58.461Z,99920.13
2022-10-15T06:17:28.115Z,99918.84
2022-10-15T06:19:57.708Z,99925.75
2022-10-15T06:22:27.797Z,99918.44
2022-10-15T06:24:57.392Z,99929.97
2022-10-15T06:27:28.557Z,99933.94
2022-10-15T06:29:58.108Z,99938.72
2022-10-15T06:32:27.646Z,99941.84
2022-10-15T06:34:57.442Z,99945.78
2022-10-15T06:37:27.243Z,99948.31
2022-10-15T06:39:57.007Z,99954.25
2022-10-15T06:42:28.030Z,99957.91
2022-10-15T06:44:57.630Z,99952.81
2022-10-15T06:47:27.402Z,99954.78
2022-10-15T06:49:56.941Z,99958.28
2022-10-15T06:52:26.811Z,99951.66
2022-10-15T06:54:56.365Z,99953.34
2022-10-15T06:57:26.325Z,99953.34
2022-10-15T06:59:57.732Z,99958.00
2022-10-15T07:02:27.463Z,99958.28
2022-10-15T07:04:57.047Z,99963.09
2022-10-15T07:07:26.775Z,99965.34
2022-10-15T07:09:56.570Z,99966.34
2022-10-15T07:12:26.634Z,99955.59
2022-10-15T07:14:57.737Z,99959.09
2022-10-15T07:17:27.833Z,99955.41
2022-10-15T07:19:57.771Z,99962.47
2022-10-15T07:22:28.130Z,99956.97
2022-10-15T07:24:57.895Z,99959.88
2022-10-15T07:27:27.629Z,99960.84
2022-10-15T07:29:58.844Z,99954.91
2022-10-15T07:32:28.735Z,99963.91
2022-10-15T07:34:58.425Z,99953.69
2022-10-15T07:37:27.993Z,99957.56
2022-10-15T07:39:57.679Z,99960.94
2022-10-15T07:42:27.576Z,99964.81
2022-10-15T07:44:59.426Z,99960.44
2022-10-15T07:47:29.123Z,99967.03
2022-10-15T07:49:58.709Z,99963.31
2022-10-15T07:52:28.454Z,99963.41
2022-10-15T07:54:58.312Z,99963.34
2022-10-15T07:57:27.861Z,99959.75
2022-10-15T07:59:58.876Z,99965.41
2022-10-15T08:02:28.841Z,99965.09
2022-10-15T08:04:58.480Z,99964.34
2022-10-15T08:07:28.082Z,99962.19
2022-10-15T08:09:57.666Z,99963.81
2022-10-15T08:12:28.211Z,99957.56
2022-10-15T08:14:59.183Z,99963.97
2022-10-15T08:17:28.948Z,99962.41
2022-10-15T08:19:58.682Z,99961.03
2022-10-15T08:22:28.395Z,99968.56
2022-10-15T08:24:58.008Z,99962.34
2022-10-15T08:27:27.780Z,99969.94
2022-10-15T08:29:57.400Z,99962.97
2022-10-15T08:32:28.625Z,99973.09
2022-10-15T08:34:58.177Z,99971.09
2022-10-15T08:37:27.982Z,99975.78
2022-10-15T08:39:57.857Z,99971.25
2022-10-15T08:42:33.318Z,99962.25
2022-10-15T08:45:05.183Z,99976.22
2022-10-15T08:47:39.419Z,99984.44
2022-10-15T08:50:18.640Z,99976.69
2022-10-15T08:52:49.445Z,99982.00
2022-10-15T08:55:20.467Z,99981.03
2022-10-15T08:57:54.342Z,99983.09
2022-10-15T09:00:25.416Z,99984.31
2022-10-15T09:02:58.847Z,99994.94
2022-10-15T09:05:31.301Z,99987.50
2022-10-15T09:08:19.191Z,99983.19
2022-10-15T09:10:50.855Z,99979.53
2022-10-15T09:13:25.840Z,99977.06
2022-10-15T09:15:58.357Z,99980.34
2022-10-15T09:18:31.859Z,99979.44
2022-10-15T09:21:02.984Z,99986.47
2022-10-15T09:23:34.301Z,99981.63
2022-10-15T09:26:08.565Z,99980.31
2022-10-15T09:28:42.232Z,99986.53
2022-10-15T09:31:14.896Z,99984.31
2022-10-15T09:33:47.828Z,99983.03
2022-10-15T09:36:30.714Z,99980.19
2022-10-15T09:39:06.127Z,99978.53
2022-10-15T09:41:44.467Z,99980.28
2022-10-15T09:44:17.431Z,99981.16
2022-10-15T09:46:51.433Z,99982.69
2022-10-15T09:49:25.119Z,99983.22
2022-10-15T09:52:01.729Z,99977.84
2022-10-15T09:54:38.307Z,99980.66
2022-10-15T09:57:10.339Z,99983.19
2022-10-15T09:59:40.063Z,99982.97
2022-10-15T10:02:18.753Z,99977.28
2022-10-15T10:04:49.699Z,99986.81
2022-10-15T10:07:30.308Z,99975.06
2022-10-15T10:10:01.910Z,99980.94
2022-10-15T10:12:33.668Z,99983.47
2022-10-15T10:15:05.595Z,99982.47
2022-10-15T10:17:35.315Z,99977.59
2022-10-15T10:20:18.057Z,99977.75
2022-10-15T10:22:51.354Z,99981.63
2022-10-15T10:25:29.925Z,99974.25
2022-10-15T10:28:15.701Z,99980.66
2022-10-15T10:30:51.261Z,99971.06
2022-10-15T10:33:24.185Z,99979.97
2022-10-15T10:35:55.869Z,99967.03
2022-10-15T10:38:27.609Z,99961.66
2022-10-15T10:40:59.241Z,99963.63
2022-10-15T10:43:30.041Z,99968.22
2022-10-15T10:46:00.303Z,99966.38
2022-10-15T10:48:30.803Z,99958.81
2022-10-15T10:51:09.267Z,99965.88
2022-10-15T10:53:45.691Z,99964.88
2022-10-15T10:56:15.872Z,99951.91
2022-10-15T10:58:45.723Z,99960.53
2022-10-15T11:01:16.816Z,99951.94
2022-10-15T11:03:46.603Z,99945.06
2022-10-15T11:06:32.565Z,99947.25
2022-10-15T11:09:07.074Z,99945.75
2022-10-15T11:11:43.402Z,99940.72
2022-10-15T11:14:21.487Z,99944.22
2022-10-15T11:16:55.874Z,99934.63
2022-10-15T11:20:05.907Z,99939.34
2022-10-15T11:22:26.951Z,99929.94
2022-10-15T11:25:07.148Z,99926.56
2022-10-15T11:27:52.382Z,99927.59
2022-10-15T11:30:30.587Z,99932.31
2022-10-15T11:33:08.645Z,99931.63
2022-10-15T11:35:59.527Z,99941.91
2022-10-15T11:38:35.749Z,99926.56
2022-10-15T11:41:11.842Z,99929.25
2022-10-15T11:43:53.593Z,99923.91
2022-10-15T11:46:29.059Z,99918.19
2022-10-15T11:49:04.616Z,99919.69
2022-10-15T11:51:36.883Z,99923.88
2022-10-15T11:54:14.418Z,99928.28
2022-10-15T11:56:46.953Z,99919.38
2022-10-15T11:59:21.504Z,99912.75
2022-10-15T12:01:53.555Z,99916.50
2022-10-15T12:04:30.343Z,99923.56
2022-10-15T12:07:03.530Z,99922.88
2022-10-15T12:09:36.644Z,99923.91
2022-10-15T12:12:10.731Z,99929.97
2022-10-15T12:14:44.685Z,99923.34
2022-10-15T12:17:18.600Z,99917.97
2022-10-15T12:19:50.028Z,99918.34
2022-10-15T12:22:34.154Z,99927.44
2022-10-15T12:25:06.210Z,99924.75
2022-10-15T12:27:36.563Z,99923.56
2022-10-15T12:30:22.844Z,99920.00
2022-10-15T12:32:52.798Z,99920.34
2022-10-15T12:35:24.209Z,99924.94
2022-10-15T12:37:53.867Z,99923.22
2022-10-15T12:40:29.761Z,99924.94
2022-10-15T12:43:01.061Z,99930.16
2022-10-15T12:45:37.368Z,99925.59
2022-10-15T12:48:20.943Z,99923.91
2022-10-15T12:50:50.822Z,99928.59
2022-10-15T12:53:34.417Z,99925.44
2022-10-15T12:56:22.021Z,99921.69
2022-10-15T12:58:52.582Z,99933.00
2022-10-15T13:01:51.230Z,99928.13
2022-10-15T13:04:21.169Z,99931.66
2022-10-15T13:06:50.832Z,99940.25
2022-10-15T13:09:30.401Z,99932.34
2022-10-15T13:12:03.167Z,99939.06
2022-10-15T13:14:36.148Z,99940.41
2022-10-15T13:17:07.444Z,99934.84
2022-10-15T13:19:39.877Z,99941.91
2022-10-15T13:22:21.780Z,99949.13
2022-10-15T13:24:54.040Z,99947.25
2022-10-15T13:27:26.799Z,99945.06
2022-10-15T13:29:57.784Z,99944.03
2022-10-15T13:32:30.093Z,99939.63
2022-10-15T13:34:59.997Z,99939.13
2022-10-15T13:37:32.230Z,99930.38
2022-10-15T13:40:06.593Z,99934.91
2022-10-15T13:42:39.229Z,99933.09
2022-10-15T13:45:17.731Z,99932.56
2022-10-15T13:47:48.979Z,99930.84
2022-10-15T13:50:20.089Z,99930.03
2022-10-15T13:52:51.802Z,99928.00
2022-10-15T13:55:23.537Z,99928.53
2022-10-15T13:57:57.782Z,99937.81
2022-10-15T14:00:29.307Z,99941.34
2022-10-15T14:03:09.502Z,99936.94
2022-10-15T14:05:39.028Z,99938.31
2022-10-15T14:08:15.694Z,99938.59
2022-10-15T14:10:45.494Z,99932.88
2022-10-15T14:13:17.141Z,99937.56
2022-10-15T14:15:53.023Z,99939.28
2022-10-15T14:18:29.453Z,99941.31
2022-10-15T14:20:59.131Z,99942.63
2022-10-15T14:23:28.889Z,99942.63
2022-10-15T14:26:00.879Z,99939.41
2022-10-15T14:28:32.703Z,99939.72
2022-10-15T14:31:03.284Z,99943.47
2022-10-15T14:33:34.514Z,99943.78
2022-10-15T14:36:05.396Z,99945.78
2022-10-15T14:38:35.048Z,99944.25
2022-10-15T14:41:07.839Z,99943.75
2022-10-15T14:43:39.253Z,99942.06
2022-10-15T14:46:13.078Z,99950.25
2022-10-15T14:48:44.497Z,99948.22
2022-10-15T14:51:18.849Z,99947.69
2022-10-15T14:53:48.727Z,99955.41
2022-10-15T14:56:20.183Z,99948.16
2022-10-15T14:58:53.315Z,99953.91
2022-10-15T15:01:23.497Z,99951.72
2022-10-15T15:03:53.730Z,99948.84
2022-10-15T15:06:23.296Z,99943.09
2022-10-15T15:08:52.948Z,99941.44
2022-10-15T15:11:24.053Z,99940.06
2022-10-15T15:13:55.571Z,99941.06
2022-10-15T15:16:25.244Z,99936.50
2022-10-15T15:18:58.370Z,99941.75
2022-10-15T15:21:27.970Z,99946.44
2022-10-15T15:23:58.088Z,99953.50
2022-10-15T15:26:27.741Z,99955.63
2022-10-15T15:28:59.462Z,99953.97
2022-10-15T15:31:32.792Z,99954.81
2022-10-15T15:34:02.336Z,99955.63
2022-10-15T15:36:32.115Z,99961.88
2022-10-15T15:39:01.792Z,99967.25
2022-10-15T15:41:33.812Z,99964.56
2022-10-15T15:44:05.526Z,99972.81
2022-10-15T15:46:35.195Z,99967.41
2022-10-15T15:49:04.718Z,99980.00
2022-10-15T15:51:34.403Z,99965.56
2022-10-15T15:54:06.263Z,99979.03
2022-10-15T15:56:36.007Z,99975.34
2022-10-15T15:59:07.130Z,99975.50
2022-10-15T16:01:37.055Z,99980.72
2022-10-15T16:04:06.884Z,99984.09
2022-10-15T16:06:36.472Z,99986.63
2022-10-15T16:09:06.702Z,99989.34
2022-10-15T16:11:38.253Z,99986.47
2022-10-15T16:14:09.883Z,99989.34
2022-10-15T16:16:39.477Z,99994.56
2022-10-15T16:19:09.324Z,100001.63
2022-10-15T16:21:38.913Z,99996.56
2022-10-15T16:24:08.563Z,100001.78
2022-10-15T16:26:38.189Z,100008.00
2022-10-15T16:29:09.112Z,100007.19
2022-10-15T16:31:38.714Z,100013.56
2022-10-15T16:34:08.324Z,100012.72
2022-10-15T16:36:38.221Z,100019.09
2022-10-15T16:39:08.064Z,100028.88
2022-10-15T16:41:37.746Z,100025.47
2022-10-15T16:44:07.350Z,100030.84
2022-10-15T16:46:41.702Z,100030.16
2022-10-15T16:49:12.678Z,100029.16
2022-10-15T16:51:43.716Z,100029.31
2022-10-15T16:54:14.073Z,100031.13
2022-10-15T16:56:47.980Z,100033.97
2022-10-15T16:59:21.538Z,100042.06
2022-10-15T17:01:52.542Z,100039.53
2022-10-15T17:04:22.202Z,100047.44
2022-10-15T17:06:51.799Z,100056.00
2022-10-15T17:09:21.623Z,100056.97
2022-10-15T17:11:51.789Z,100061.38
2022-10-15T17:14:23.002Z,100062.34
2022-10-15T17:16:54.283Z,100069.75
2022-10-15T17:19:27.847Z,100070.75
2022-10-15T17:22:00.154Z,100078.47
2022-10-15T17:24:29.760Z,100084.81
2022-10-15T17:26:59.484Z,100082.06
2022-10-15T17:29:32.547Z,100086.44
2022-10-15T17:32:05.105Z,100092.28
2022-10-15T17:34:34.765Z,100100.69
2022-10-15T17:37:04.398Z,100109.03
2022-10-15T17:39:34.389Z,100110.88
2022-10-15T17:42:04.222Z,100116.25
2022-10-15T17:44:33.828Z,100109.81
2022-10-15T17:47:05.229Z,100102.72
2022-10-15T17:49:34.988Z,100110.94
2022-10-15T17:52:04.771Z,100112.97
2022-10-15T17:54:34.308Z,100119.09
2022-10-15T17:57:04.163Z,100113.16
2022-10-15T17:59:33.982Z,100124.91
2022-10-15T18:02:05.072Z,100132.28
2022-10-15T18:04:34.662Z,100137.00
2022-10-15T18:07:04.528Z,100149.88
2022-10-15T18:09:34.071Z,100142.41
2022-10-15T18:12:04.345Z,100143.03
2022-10-15T18:14:33.852Z,100149.22
2022-10-15T18:17:05.192Z,100155.75
2022-10-15T18:19:34.843Z,100155.44
2022-10-15T18:22:04.754Z,100154.75
2022-10-15T18:24:34.672Z,100157.03
2022-10-15T18:27:04.618Z,100155.66
2022-10-15T18:29:36.173Z,100158.63
2022-10-15T18:32:07.312Z,100161.91
2022-10-15T18:34:37.012Z,100160.13
2022-10-15T18:37:06.983Z,100165.06
2022-10-15T18:39:36.689Z,100162.50
2022-10-15T18:42:06.319Z,100164.94
2022-10-15T18:44:35.837Z,100174.28
2022-10-15T18:47:08.538Z,100173.88
2022-10-15T18:49:38.837Z,100177.88
2022-10-15T18:52:21.670Z,100173.03
2022-10-15T18:54:58.215Z,100176.56
2022-10-15T18:57:27.773Z,100183.94
2022-10-15T18:59:57.397Z,100192.72
2022-10-15T19:02:28.610Z,100196.66
2022-10-15T19:04:58.510Z,100202.34
2022-10-15T19:07:31.565Z,100194.28
2022-10-15T19:10:01.864Z,100201.75
2022-10-15T19:12:34.820Z,100208.00
2022-10-15T19:15:05.245Z,100211.06
2022-10-15T19:17:37.597Z,100213.22
2022-10-15T19:20:07.735Z,100215.59
2022-10-15T19:22:37.308Z,100216.75
2022-10-15T19:25:07.596Z,100222.38
2022-10-15T19:27:37.155Z,100217.59
2022-10-15T19:30:08.178Z,100226.22
2022-10-15T19:32:39.317Z,100216.19
2022-10-15T19:35:09.573Z,100221.53
2022-10-15T19:37:39.304Z,100231.72
2022-10-15T19:40:10.018Z,100243.56
2022-10-15T19:42:40.680Z,100238.75
2022-10-15T19:45:10.897Z,100231.56
2022-10-15T19:47:42.126Z,100233.13
2022-10-15T19:50:13.132Z,100235.09
2022-10-15T19:52:42.799Z,100245.25
2022-10-15T19:55:12.428Z,100237.06
2022-10-15T19:57:41.975Z,100232.66
2022-10-15T20:00:12.360Z,100234.94
2022-10-15T20:02:43.350Z,100240.72
2022-10-15T20:05:13.131Z,100234.81
2022-10-15T20:07:44.055Z,100233.34
2022-10-15T20:10:13.742Z,100238.16
2022-10-15T20:15:20.743Z,100230.38
2022-10-15T20:17:51.738Z,100242.44
2022-10-15T20:20:22.580Z,100243.31
2022-10-15T20:22:52.572Z,100243.03
2022-10-15T20:25:22.445Z,100247.09
2022-10-15T20:27:52.126Z,100256.81
2022-10-15T20:30:22.073Z,100247.38
2022-10-15T20:32:53.108Z,100249.47
2022-10-15T20:35:23.023Z,100259.78
2022-10-15T20:37:52.626Z,100252.16
2022-10-15T20:40:22.140Z,100256.63
2022-10-15T20:42:52.376Z,100252.78
2022-10-15T20:45:22.636Z,100252.59
2022-10-15T20:47:54.365Z,100252.88
2022-10-15T20:50:26.343Z,100253.91
2022-10-15T20:52:56.972Z,100257.72
2022-10-15T20:55:26.713Z,100254.78
2022-10-15T20:57:56.472Z,100255.69
2022-10-15T21:00:26.078Z,100256.69
2022-10-15T21:02:57.051Z,100253.00
2022-10-15T21:05:26.660Z,100251.97
2022-10-15T21:07:58.354Z,100243.38
2022-10-15T21:10:27.925Z,100256.66
2022-10-15T21:12:58.259Z,100263.50
2022-10-15T21:15:30.540Z,100261.81
2022-10-15T21:18:01.530Z,100265.69
2022-10-15T21:20:31.269Z,100268.84
2022-10-15T21:23:00.832Z,100268.28
2022-10-15T21:25:30.653Z,100269.50
2022-10-15T21:28:00.353Z,100265.94
2022-10-15T21:30:30.133Z,100270.31
2022-10-15T21:33:01.112Z,100271.19
2022-10-15T21:35:30.729Z,100270.13
2022-10-15T21:38:04.213Z,100273.34
2022-10-15T21:40:33.832Z,100274.41
2022-10-15T21:43:03.466Z,100277.25
2022-10-15T21:45:33.043Z,100276.66
2022-10-15T21:48:04.569Z,100283.59
2022-10-15T21:50:34.107Z,100282.38
2022-10-15T21:53:04.195Z,100277.88
2022-10-15T21:55:33.780Z,100272.16
2022-10-15T21:58:03.401Z,100277.63
2022-10-15T22:00:32.986Z,100280.44
2022-10-15T22:03:03.943Z,100285.16
2022-10-15T22:05:33.814Z,100283.22
2022-10-15T22:08:03.457Z,100276.59
2022-10-15T22:10:33.112Z,100286.28
2022-10-15T22:13:05.563Z,100280.94
2022-10-15T22:15:35.586Z,100283.38
2022-10-15T22:18:06.780Z,100281.56
2022-10-15T22:20:36.524Z,100289.13
2022-10-15T22:23:06.291Z,100282.44
2022-10-15T22:25:35.956Z,100286.69
2022-10-15T22:28:06.480Z,100291.56
2022-10-15T22:30:36.642Z,100289.00
2022-10-15T22:33:07.703Z,100289.84
2022-10-15T22:35:37.278Z,100297.78
2022-10-15T22:38:07.137Z,100298.88
2022-10-15T22:40:36.759Z,100311.38
2022-10-15T22:43:06.643Z,100311.25
2022-10-15T22:45:36.275Z,100307.88
2022-10-15T22:48:07.700Z,100313.56
2022-10-15T22:50:37.317Z,100311.38
2022-10-15T22:53:07.135Z,100313.34
2022-10-15T22:55:36.739Z,100306.78
2022-10-15T22:58:06.594Z,100311.00
2022-10-15T23:00:36.221Z,100319.16
2022-10-15T23:03:07.648Z,100319.75
2022-10-15T23:05:37.380Z,100314.88
2022-10-15T23:08:07.406Z,100319.00
2022-10-15T23:10:38.927Z,100310.97
2022-10-15T23:13:09.075Z,100317.41
2022-10-15T23:15:39.374Z,100319.72
2022-10-15T23:18:10.593Z,100329.00
2022-10-15T23:20:40.194Z,100325.16
2022-10-15T23:23:10.108Z,100326.22
2022-10-15T23:25:40.234Z,100327.78
2022-10-15T23:28:10.301Z,100325.22
2022-10-15T23:30:40.316Z,100324.00
2022-10-15T23:33:11.338Z,100322.53
2022-10-15T23:35:40.975Z,100334.78
2022-10-15T23:38:10.779Z,100331.16
2022-10-15T23:40:40.368Z,100325.97
2022-10-15T23:43:10.116Z,100328.91
2022-10-15T23:45:41.603Z,100332.72
2022-10-15T23:48:12.897Z,100342.34
2022-10-15T23:50:42.736Z,100335.03
2022-10-15T23:53:12.452Z,100340.72
2022-10-15T23:55:42.214Z,100341.13
2022-10-15T23:58:12.072Z,100344.34
